Time;durP1;ratioP1;P1;durP2;ratioP2;P2;SDS_P1;SDS_P2;PMS_P1;PMS_P2;Temp;Humidity;BMP_temperature;BMP_pressure;BME280_temperature;BME280_humidity;BME280_pressure;Samples;Min_cycle;Max_cycle;Signal;HPM_P1;HPM_P2
2021/04/05 04:00:36;;;;;;;26.17;15.88;;;6.70;99.90;;;;;;5769592;23;20289;-73
2021/04/05 04:03:06;;;;;;;21.60;14.23;;;6.70;99.90;;;;;;4897065;29;20203;-72
2021/04/05 04:05:37;;;;;;;23.23;14.98;;;6.60;99.90;;;;;;4897168;29;20695;-72
2021/04/05 04:08:11;;;;;;;22.13;13.75;;;6.60;99.90;;;;;;4897214;29;20224;-72
2021/04/05 04:10:38;;;;;;;22.92;14.35;;;6.60;99.90;;;;;;4897247;29;20242;-72
2021/04/05 04:13:10;;;;;;;23.17;14.98;;;6.60;99.90;;;;;;4882589;29;20212;-72
2021/04/05 04:15:37;;;;;;;26.13;14.57;;;6.60;99.90;;;;;;4883029;29;20250;-72
2021/04/05 04:18:05;;;;;;;22.33;14.77;;;6.60;99.90;;;;;;4883145;29;20219;-71
2021/04/05 04:20:33;;;;;;;19.65;13.82;;;6.50;99.90;;;;;;4882215;29;20560;-70
2021/04/05 04:23:00;;;;;;;23.92;15.73;;;6.50;99.90;;;;;;4896486;29;20219;-70
2021/04/05 04:25:27;;;;;;;33.53;16.70;;;6.50;99.90;;;;;;4892883;29;20216;-70
2021/04/05 04:27:53;;;;;;;26.75;16.35;;;6.40;99.90;;;;;;4878585;29;20550;-70
2021/04/05 04:30:31;;;;;;;24.58;15.95;;;6.40;99.90;;;;;;4879563;29;20616;-70
2021/04/05 04:33:00;;;;;;;30.00;16.80;;;6.40;99.90;;;;;;4896516;29;20226;-70
2021/04/05 04:35:27;;;;;;;23.83;16.38;;;6.40;99.90;;;;;;4882642;29;20199;-70
2021/04/05 04:37:53;;;;;;;27.45;16.48;;;6.40;99.90;;;;;;4896647;29;20660;-70
2021/04/05 04:40:25;;;;;;;27.33;15.65;;;6.40;99.90;;;;;;4890550;29;20212;-71
2021/04/05 04:42:51;;;;;;;26.20;15.98;;;6.40;99.90;;;;;;4896591;29;20619;-70
2021/04/05 04:45:19;;;;;;;22.92;16.13;;;6.40;99.90;;;;;;4884463;29;20705;-73
2021/04/05 04:47:45;;;;;;;23.85;17.05;;;6.40;99.90;;;;;;4878255;29;20228;-73
2021/04/05 04:50:16;;;;;;;23.52;16.88;;;6.30;99.90;;;;;;4886356;29;20231;-73
2021/04/05 04:52:42;;;;;;;25.05;17.17;;;6.30;99.90;;;;;;4900020;29;20255;-75
2021/04/05 04:55:09;;;;;;;24.40;15.77;;;6.30;99.90;;;;;;4900748;29;20222;-74
2021/04/05 04:57:36;;;;;;;26.70;16.15;;;6.30;99.90;;;;;;4900501;29;20208;-74
2021/04/05 05:00:04;;;;;;;29.52;15.73;;;6.30;99.90;;;;;;4900710;29;20223;-74
2021/04/05 05:02:31;;;;;;;22.63;16.02;;;6.30;99.90;;;;;;4899922;29;20314;-75
2021/04/05 05:04:59;;;;;;;24.35;17.05;;;6.30;99.90;;;;;;4900037;29;20676;-74
2021/04/05 05:07:27;;;;;;;27.35;17.77;;;6.30;99.90;;;;;;4900052;29;20231;-74
2021/04/05 05:09:54;;;;;;;27.92;16.50;;;6.20;99.90;;;;;;4900410;29;20226;-73
2021/04/05 05:12:20;;;;;;;22.95;16.35;;;6.20;99.90;;;;;;4899763;29;20235;-74
2021/04/05 05:14:47;;;;;;;25.70;16.55;;;6.20;99.90;;;;;;4900101;29;20640;-74
2021/04/05 05:17:14;;;;;;;23.20;14.70;;;6.20;99.90;;;;;;4886073;29;20216;-74
2021/04/05 05:19:43;;;;;;;18.85;14.02;;;6.10;99.90;;;;;;4900073;29;20211;-73
2021/04/05 05:22:14;;;;;;;16.38;6.68;;;6.10;99.90;;;;;;4898818;29;20227;-72
2021/04/05 05:24:44;;;;;;;3.80;3.25;;;6.10;99.90;;;;;;4901072;29;20206;-70
2021/04/05 05:27:11;;;;;;;0.98;0.98;;;5.80;99.90;;;;;;4881269;29;20215;-72
2021/04/05 05:29:39;;;;;;;0.40;0.40;;;5.50;99.90;;;;;;4896412;29;20219;-71
2021/04/05 05:32:07;;;;;;;1.00;0.73;;;5.30;99.90;;;;;;4881994;29;20228;-71
2021/04/05 05:34:33;;;;;;;0.38;0.38;;;5.10;99.90;;;;;;4898521;29;20207;-70
2021/04/05 05:37:00;;;;;;;0.95;0.40;;;4.90;99.90;;;;;;4883864;29;20276;-70
2021/04/05 05:39:26;;;;;;;1.95;1.85;;;4.80;99.90;;;;;;4896813;29;20575;-73
2021/04/05 05:42:04;;;;;;;0.43;0.40;;;4.80;99.90;;;;;;4885203;29;20542;-73
2021/04/05 05:44:39;;;;;;;0.50;0.50;;;4.70;99.90;;;;;;4890343;29;20207;-73
2021/04/05 05:47:11;;;;;;;0.90;0.45;;;4.70;99.90;;;;;;4897445;29;20270;-70
2021/04/05 05:49:48;;;;;;;0.50;0.50;;;4.70;99.90;;;;;;4888749;29;20211;-70
2021/04/05 05:52:46;;;;;;;1.25;0.68;;;4.70;99.90;;;;;;4881325;29;20651;-71
2021/04/05 05:55:27;;;;;;;2.85;0.73;;;4.70;99.90;;;;;;4882968;29;20212;-71
2021/04/05 05:58:05;;;;;;;1.27;1.27;;;4.60;99.90;;;;;;4882469;29;20264;-71
2021/04/05 06:00:36;;;;;;;2.80;0.63;;;4.60;99.90;;;;;;4899019;29;20238;-71
2021/04/05 06:03:28;;;;;;;0.70;0.70;;;4.60;99.90;;;;;;4905666;29;20659;-70
2021/04/05 06:05:58;;;;;;;1.10;1.00;;;4.70;99.90;;;;;;4870839;29;20217;-72
2021/04/05 06:08:33;;;;;;;0.77;0.50;;;4.70;99.90;;;;;;4891397;29;20613;-73
2021/04/05 06:11:14;;;;;;;1.77;0.90;;;4.80;99.90;;;;;;4910288;29;20239;-71
2021/04/05 06:13:50;;;;;;;0.52;0.52;;;4.80;99.90;;;;;;4876042;29;20276;-70
2021/04/05 06:16:28;;;;;;;1.50;0.90;;;4.80;99.90;;;;;;4903372;29;20203;-72
2021/04/05 06:19:27;;;;;;;0.85;0.60;;;4.80;99.90;;;;;;4881610;29;20230;-72
2021/04/05 06:22:00;;;;;;;0.70;0.70;;;4.80;99.90;;;;;;4885742;29;20253;-74
2021/04/05 06:24:35;;;;;;;0.75;0.75;;;4.80;99.90;;;;;;4880778;29;20216;-73
2021/04/05 06:27:08;;;;;;;0.63;0.60;;;4.80;99.90;;;;;;4885714;29;20767;-74
2021/04/05 06:29:42;;;;;;;3.80;1.23;;;4.90;99.90;;;;;;4880269;29;20234;-74
2021/04/05 06:32:33;;;;;;;2.05;1.25;;;4.80;99.90;;;;;;4887936;29;20599;-72
2021/04/05 06:35:26;;;;;;;1.35;1.00;;;4.90;99.90;;;;;;4900841;29;20203;-75
2021/04/05 06:37:57;;;;;;;2.10;1.20;;;4.90;99.90;;;;;;4891526;29;20196;-72
2021/04/05 06:40:27;;;;;;;1.95;1.85;;;4.90;99.90;;;;;;4892594;29;20579;-72
2021/04/05 06:43:15;;;;;;;1.83;1.40;;;4.90;99.90;;;;;;4892114;29;20252;-72
2021/04/05 06:45:56;;;;;;;5.28;1.73;;;4.90;99.90;;;;;;4892157;29;20556;-70
2021/04/05 06:48:44;;;;;;;4.72;1.17;;;4.90;99.90;;;;;;4886083;29;20709;-71
2021/04/05 06:51:23;;;;;;;1.08;1.05;;;4.80;99.90;;;;;;4881154;29;20228;-71
2021/04/05 06:54:10;;;;;;;1.92;1.48;;;4.70;99.90;;;;;;4896006;29;20211;-71
2021/04/05 06:56:53;;;;;;;3.53;3.08;;;4.50;99.90;;;;;;4861278;29;20212;-70
2021/04/05 06:59:29;;;;;;;2.60;2.25;;;4.40;99.90;;;;;;4899196;29;20211;-72
2021/04/05 07:02:23;;;;;;;5.10;2.00;;;4.40;99.90;;;;;;4884593;29;20240;-72
2021/04/05 07:05:04;;;;;;;4.22;2.05;;;4.40;99.90;;;;;;4869020;29;20234;-71
2021/04/05 07:07:42;;;;;;;2.25;1.95;;;4.40;99.90;;;;;;4872194;29;20207;-70
2021/04/05 07:10:13;;;;;;;1.50;1.50;;;4.40;99.90;;;;;;4898200;29;20687;-71
2021/04/05 07:12:52;;;;;;;4.43;1.80;;;4.40;99.90;;;;;;4892406;29;20268;-70
2021/04/05 07:15:33;;;;;;;3.95;1.58;;;4.50;99.90;;;;;;4880616;29;20641;-71
2021/04/05 07:18:43;;;;;;;7.85;1.27;;;4.50;99.90;;;;;;4881633;29;20204;-70
2021/04/05 07:21:21;;;;;;;4.63;1.60;;;4.50;99.90;;;;;;4871198;29;20237;-71
2021/04/05 07:24:10;;;;;;;5.68;1.20;;;4.50;99.90;;;;;;4896492;29;20203;-70
2021/04/05 07:26:42;;;;;;;2.85;2.55;;;4.60;99.90;;;;;;4892689;29;20231;-70
2021/04/05 07:29:11;;;;;;;4.35;1.80;;;4.60;99.90;;;;;;4899289;29;20234;-69
2021/04/05 07:31:45;;;;;;;2.58;1.33;;;4.60;99.90;;;;;;4897686;29;20235;-70
2021/04/05 07:34:22;;;;;;;4.03;2.40;;;4.70;99.90;;;;;;4890552;29;20207;-72
2021/04/05 07:36:57;;;;;;;5.38;1.70;;;4.70;99.90;;;;;;4879631;29;20224;-70
2021/04/05 07:39:32;;;;;;;6.32;1.10;;;4.70;99.90;;;;;;4892543;29;20214;-70
2021/04/05 07:42:06;;;;;;;1.20;1.13;;;4.60;99.90;;;;;;4897418;29;20238;-71
2021/04/05 07:44:45;;;;;;;1.33;1.02;;;4.60;99.90;;;;;;4860754;29;20261;-70
2021/04/05 07:47:22;;;;;;;2.70;0.90;;;4.50;99.90;;;;;;4872492;29;20215;-70
2021/04/05 07:49:58;;;;;;;6.00;1.15;;;4.40;99.90;;;;;;4886494;29;20195;-71
2021/04/05 07:52:31;;;;;;;0.50;0.50;;;4.40;99.90;;;;;;4884266;29;20234;-70
2021/04/05 07:54:59;;;;;;;2.17;0.88;;;4.30;99.90;;;;;;4882345;29;20595;-71
2021/04/05 07:57:31;;;;;;;1.52;0.90;;;4.30;99.90;;;;;;4883185;29;20637;-71
2021/04/05 08:00:05;;;;;;;3.00;1.10;;;4.40;99.90;;;;;;4882842;29;20203;-70
2021/04/05 08:02:41;;;;;;;7.70;2.92;;;4.50;99.90;;;;;;4890967;29;20694;-70
2021/04/05 08:05:21;;;;;;;1.88;1.77;;;4.60;99.90;;;;;;4894258;29;20208;-70
2021/04/05 08:08:06;;;;;;;2.33;2.08;;;4.70;99.90;;;;;;4881509;29;20326;-69
2021/04/05 08:10:41;;;;;;;2.10;1.88;;;4.70;99.90;;;;;;4878666;29;20342;-69
2021/04/05 08:13:21;;;;;;;2.97;1.50;;;4.80;99.90;;;;;;4896665;29;20215;-70
2021/04/05 08:15:58;;;;;;;4.35;1.75;;;4.80;99.90;;;;;;4892888;29;20207;-70
2021/04/05 08:18:30;;;;;;;4.35;1.60;;;5.00;99.90;;;;;;4890676;29;20664;-70
2021/04/05 08:21:07;;;;;;;3.42;1.02;;;5.10;99.90;;;;;;4898172;29;20235;-70
2021/04/05 08:23:45;;;;;;;2.75;1.38;;;5.20;99.90;;;;;;4880742;29;20755;-72
2021/04/05 08:26:27;;;;;;;1.88;0.85;;;5.30;99.90;;;;;;4898967;29;20217;-71
2021/04/05 08:29:04;;;;;;;6.47;1.20;;;5.20;99.90;;;;;;4890484;29;20239;-72
2021/04/05 08:31:56;;;;;;;1.70;0.95;;;5.20;99.90;;;;;;4899046;29;20298;-72
2021/04/05 08:34:31;;;;;;;3.70;1.05;;;5.00;99.90;;;;;;4887328;29;20207;-72
2021/04/05 08:37:11;;;;;;;1.13;1.08;;;4.90;99.90;;;;;;4886162;29;20267;-71
2021/04/05 08:39:44;;;;;;;4.03;2.13;;;4.70;99.90;;;;;;4891953;29;20208;-71
2021/04/05 08:42:17;;;;;;;9.70;4.35;;;4.70;99.90;;;;;;4895366;29;20717;-70
2021/04/05 08:44:51;;;;;;;8.85;3.85;;;4.70;99.90;;;;;;4891842;29;20208;-70
2021/04/05 08:47:22;;;;;;;5.07;1.45;;;4.80;99.90;;;;;;4887941;29;20207;-71
2021/04/05 08:49:48;;;;;;;3.17;1.48;;;5.00;99.90;;;;;;4890476;29;20267;-71
2021/04/05 08:52:22;;;;;;;2.95;1.60;;;5.10;99.90;;;;;;4881012;29;20700;-70
2021/04/05 08:54:49;;;;;;;1.20;1.20;;;5.20;99.90;;;;;;4881347;29;20293;-70
2021/04/05 08:57:22;;;;;;;0.57;0.50;;;5.30;99.90;;;;;;4881340;29;20208;-70
2021/04/05 08:59:55;;;;;;;2.83;0.50;;;5.30;99.90;;;;;;4880991;29;20200;-70
2021/04/05 09:02:25;;;;;;;1.95;0.57;;;5.20;99.90;;;;;;4881040;29;20327;-70
2021/04/05 09:04:54;;;;;;;0.85;0.70;;;5.10;99.90;;;;;;4881325;29;20285;-70
2021/04/05 09:07:39;;;;;;;1.25;0.70;;;5.00;99.90;;;;;;4874087;29;20220;-70
2021/04/05 09:10:08;;;;;;;0.70;0.70;;;4.90;99.90;;;;;;4881394;29;20215;-70
2021/04/05 09:12:35;;;;;;;1.00;1.00;;;4.70;99.90;;;;;;4881118;29;20208;-70
2021/04/05 09:15:19;;;;;;;0.85;0.73;;;4.60;99.90;;;;;;4880513;29;20552;-70
2021/04/05 09:18:04;;;;;;;1.05;0.40;;;4.40;99.90;;;;;;4881512;29;20208;-70
2021/04/05 09:20:48;;;;;;;0.82;0.50;;;4.20;99.90;;;;;;4881414;29;20254;-69
2021/04/05 09:23:37;;;;;;;0.52;0.50;;;4.10;99.90;;;;;;4880487;29;20637;-70
2021/04/05 09:26:44;;;;;;;1.08;0.65;;;3.90;99.90;;;;;;4881472;29;20275;-70
2021/04/05 09:29:20;;;;;;;0.45;0.45;;;3.80;99.90;;;;;;4878781;29;20259;-69
2021/04/05 09:32:14;;;;;;;0.93;0.93;;;3.90;99.90;;;;;;4865166;29;20357;-69
2021/04/05 09:35:05;;;;;;;0.80;0.80;;;4.00;99.90;;;;;;4884021;29;20204;-69
2021/04/05 09:37:54;;;;;;;0.88;0.88;;;4.20;99.90;;;;;;4880618;29;20212;-71
2021/04/05 09:40:50;;;;;;;3.90;1.25;;;4.00;99.90;;;;;;4888307;29;20216;-70
2021/04/05 09:43:46;;;;;;;0.60;0.60;;;3.40;99.90;;;;;;4893112;29;20215;-71
2021/04/05 09:46:42;;;;;;;3.08;0.82;;;3.00;99.90;;;;;;4884271;29;20219;-72
2021/04/05 09:49:16;;;;;;;2.83;0.60;;;3.00;99.90;;;;;;4871610;29;20292;-72
2021/04/05 09:52:18;;;;;;;1.48;0.50;;;3.10;99.90;;;;;;4864790;29;20244;-72
2021/04/05 09:54:49;;;;;;;1.40;0.70;;;3.30;99.90;;;;;;4854161;29;20249;-72
2021/04/05 09:57:20;;;;;;;3.55;3.33;;;3.60;99.90;;;;;;4878586;29;20665;-72
2021/04/05 09:59:50;;;;;;;1.75;0.65;;;3.80;99.90;;;;;;4883965;29;20204;-71
2021/04/05 10:02:24;;;;;;;0.70;0.70;;;3.80;99.90;;;;;;4899691;29;20366;-71
2021/04/05 10:04:51;;;;;;;4.70;1.27;;;3.90;99.90;;;;;;4901555;29;20607;-71
2021/04/05 10:07:18;;;;;;;2.20;0.95;;;3.90;99.90;;;;;;4894449;29;20230;-71
2021/04/05 10:09:48;;;;;;;1.33;0.73;;;4.10;99.90;;;;;;4885037;29;20232;-71
2021/04/05 10:12:16;;;;;;;4.63;1.95;;;4.30;99.90;;;;;;4884412;29;20263;-71
2021/04/05 10:14:44;;;;;;;5.25;1.95;;;4.40;99.90;;;;;;4901089;29;20215;-71
2021/04/05 10:17:11;;;;;;;4.03;1.40;;;4.50;99.90;;;;;;4897140;29;20540;-71
2021/04/05 10:19:41;;;;;;;1.60;1.23;;;4.50;99.90;;;;;;4883787;29;20215;-71
2021/04/05 10:22:14;;;;;;;5.15;2.28;;;4.60;99.90;;;;;;4882498;29;20231;-71
2021/04/05 10:24:43;;;;;;;4.78;2.20;;;4.60;99.90;;;;;;4882880;29;20220;-71
2021/04/05 10:27:12;;;;;;;10.68;2.92;;;4.60;99.90;;;;;;4883805;29;20295;-71
2021/04/05 10:29:41;;;;;;;3.97;1.77;;;4.80;99.90;;;;;;4883608;29;20235;-71
2021/04/05 10:32:09;;;;;;;5.90;1.42;;;4.90;99.90;;;;;;4880695;29;20235;-70
2021/04/05 10:34:37;;;;;;;4.20;1.45;;;4.90;99.90;;;;;;4879763;29;20204;-70
2021/04/05 10:37:09;;;;;;;4.22;1.25;;;5.00;99.90;;;;;;4883756;29;20314;-70
2021/04/05 10:39:36;;;;;;;4.75;1.33;;;5.20;99.90;;;;;;4879716;29;20218;-70
2021/04/05 10:42:13;;;;;;;1.27;1.25;;;4.90;99.90;;;;;;4881397;29;20275;-70
2021/04/05 10:44:45;;;;;;;2.38;1.75;;;4.40;99.90;;;;;;4879437;29;20226;-70
2021/04/05 10:47:18;;;;;;;3.00;1.60;;;4.10;99.90;;;;;;4894331;29;20267;-70
2021/04/05 10:49:47;;;;;;;5.25;1.80;;;4.10;99.90;;;;;;4898403;29;20264;-70
2021/04/05 10:52:18;;;;;;;7.15;2.85;;;4.20;99.90;;;;;;4883232;29;20327;-70
2021/04/05 10:54:49;;;;;;;12.68;3.80;;;4.30;99.90;;;;;;4874351;29;20583;-69
2021/04/05 10:57:19;;;;;;;3.20;2.63;;;4.30;99.90;;;;;;4874647;29;20298;-69
2021/04/05 10:59:48;;;;;;;1.75;1.35;;;4.40;99.90;;;;;;4878345;29;20204;-70
2021/04/05 11:02:20;;;;;;;6.70;2.03;;;4.50;99.90;;;;;;4878570;29;20303;-70
2021/04/05 11:04:53;;;;;;;7.35;4.18;;;4.70;99.90;;;;;;4878948;29;20267;-70
2021/04/05 11:07:22;;;;;;;3.00;2.80;;;4.80;99.90;;;;;;4889483;29;20207;-70
2021/04/05 11:09:51;;;;;;;2.97;1.30;;;5.10;99.90;;;;;;4878735;29;20227;-70
2021/04/05 11:12:20;;;;;;;5.20;1.33;;;5.30;99.90;;;;;;4883698;29;20660;-70
2021/04/05 11:14:48;;;;;;;4.60;1.40;;;5.40;99.90;;;;;;4885349;29;20469;-70
2021/04/05 11:17:16;;;;;;;7.47;2.25;;;5.70;99.90;;;;;;4878808;29;20220;-70
2021/04/05 11:19:50;;;;;;;4.65;1.23;;;5.80;99.90;;;;;;4879299;29;20231;-69
2021/04/05 11:22:18;;;;;;;1.15;1.05;;;5.80;99.90;;;;;;4877848;29;20235;-69
2021/04/05 11:24:52;;;;;;;7.95;2.22;;;5.50;99.90;;;;;;4879092;29;20322;-69
2021/04/05 11:27:22;;;;;;;2.72;1.58;;;5.20;99.90;;;;;;4878835;29;20216;-69
2021/04/05 11:29:52;;;;;;;2.13;1.20;;;5.00;99.90;;;;;;4878493;29;20275;-69
2021/04/05 11:32:20;;;;;;;2.47;2.05;;;4.90;99.90;;;;;;4878842;29;20239;-70
2021/04/05 11:34:54;;;;;;;0.73;0.73;;;5.00;99.90;;;;;;4879142;29;20234;-68
2021/04/05 11:37:21;;;;;;;7.97;1.25;;;4.80;99.90;;;;;;4897314;29;20195;-70
2021/04/05 11:39:57;;;;;;;2.50;1.40;;;4.40;99.90;;;;;;4898667;29;20207;-70
2021/04/05 11:42:33;;;;;;;6.38;2.40;;;4.10;99.90;;;;;;4898880;29;20235;-69
2021/04/05 11:45:02;;;;;;;3.20;1.90;;;4.00;99.90;;;;;;4898204;29;20297;-69
2021/04/05 11:47:35;;;;;;;5.40;1.55;;;4.20;99.90;;;;;;4897731;29;20682;-70
2021/04/05 11:50:10;;;;;;;3.35;2.17;;;4.40;99.90;;;;;;4897792;29;20237;-70
2021/04/05 11:52:44;;;;;;;4.78;1.15;;;4.60;99.90;;;;;;4897760;29;20202;-69
2021/04/05 11:55:18;;;;;;;0.93;0.55;;;4.90;99.90;;;;;;4897710;29;20214;-70
2021/04/05 11:57:51;;;;;;;3.67;0.98;;;5.00;99.90;;;;;;4898012;29;20570;-70
2021/04/05 12:00:26;;;;;;;3.05;0.88;;;4.90;99.90;;;;;;4897332;29;20243;-70
2021/04/05 12:03:01;;;;;;;2.17;0.85;;;4.70;99.80;;;;;;4897955;29;20270;-70
2021/04/05 12:05:31;;;;;;;0.88;0.88;;;4.60;98.60;;;;;;4898313;29;20209;-70
2021/04/05 12:08:06;;;;;;;1.98;1.30;;;4.70;99.90;;;;;;4897833;29;20207;-70
2021/04/05 12:10:35;;;;;;;0.60;0.60;;;4.90;99.90;;;;;;4897803;29;20322;-70
2021/04/05 12:13:07;;;;;;;4.38;1.02;;;5.20;99.10;;;;;;4897722;29;20275;-70
2021/04/05 12:15:36;;;;;;;0.60;0.60;;;5.60;99.60;;;;;;4897948;29;20684;-70
2021/04/05 12:18:03;;;;;;;1.85;0.60;;;5.80;99.90;;;;;;4897599;29;20218;-70
2021/04/05 12:20:32;;;;;;;0.90;0.90;;;5.60;99.90;;;;;;4897471;29;20237;-70
2021/04/05 12:23:01;;;;;;;1.02;0.80;;;5.30;99.90;;;;;;4897488;29;20222;-70
2021/04/05 12:25:30;;;;;;;1.50;0.70;;;5.00;99.90;;;;;;4897868;29;20275;-71
2021/04/05 12:28:01;;;;;;;1.50;0.70;;;5.00;99.90;;;;;;4897844;29;20207;-70
2021/04/05 12:30:29;;;;;;;2.60;1.25;;;5.00;99.90;;;;;;4898157;29;20254;-71
2021/04/05 12:32:58;;;;;;;0.93;0.93;;;5.20;99.90;;;;;;4897000;29;20219;-71
2021/04/05 12:35:25;;;;;;;2.50;1.00;;;5.30;99.90;;;;;;4897727;29;20221;-71
2021/04/05 12:37:55;;;;;;;3.10;0.80;;;5.60;99.90;;;;;;4897435;29;20211;-71
2021/04/05 12:40:25;;;;;;;2.45;0.70;;;5.80;99.90;;;;;;4895649;29;20570;-71
2021/04/05 12:42:52;;;;;;;7.80;1.00;;;5.90;99.90;;;;;;4895922;29;20199;-70
2021/04/05 12:45:19;;;;;;;2.17;1.70;;;5.90;99.90;;;;;;4879056;29;20208;-71
2021/04/05 12:47:50;;;;;;;3.40;1.50;;;5.80;99.90;;;;;;4869265;29;20267;-71
2021/04/05 12:50:22;;;;;;;1.70;0.85;;;5.80;99.90;;;;;;4879093;29;20641;-72
2021/04/05 12:52:50;;;;;;;1.75;1.08;;;6.00;99.90;;;;;;4885980;29;20208;-71
2021/04/05 12:55:19;;;;;;;3.00;1.15;;;5.80;99.90;;;;;;4887295;29;20232;-70
2021/04/05 12:57:46;;;;;;;3.45;1.10;;;5.50;99.90;;;;;;4883678;29;20215;-70
2021/04/05 13:00:21;;;;;;;2.65;1.10;;;4.80;99.90;;;;;;4886088;29;20212;-71
2021/04/05 13:02:54;;;;;;;3.17;1.20;;;4.30;99.90;;;;;;4884929;29;20204;-71
2021/04/05 13:05:30;;;;;;;2.15;1.23;;;4.10;99.90;;;;;;4878283;29;20212;-71
2021/04/05 13:08:02;;;;;;;2.47;1.25;;;4.10;99.90;;;;;;4859183;29;20231;-72
2021/04/05 13:10:38;;;;;;;6.07;0.90;;;4.10;99.90;;;;;;4871512;29;20232;-71
2021/04/05 13:13:11;;;;;;;1.05;0.95;;;4.30;99.90;;;;;;4862398;29;20211;-71
2021/04/05 13:15:39;;;;;;;2.05;0.68;;;4.40;99.90;;;;;;4880978;29;20236;-71
2021/04/05 13:18:11;;;;;;;1.67;0.50;;;4.60;99.90;;;;;;4881092;29;20215;-71
2021/04/05 13:20:43;;;;;;;1.45;0.60;;;4.80;99.90;;;;;;4881354;29;20235;-71
2021/04/05 13:23:11;;;;;;;3.05;1.05;;;5.00;99.90;;;;;;4880761;29;20696;-72
2021/04/05 13:25:41;;;;;;;5.57;0.90;;;5.20;99.90;;;;;;4881335;29;20543;-72
2021/04/05 13:28:08;;;;;;;2.83;0.77;;;5.40;99.90;;;;;;4883403;29;20276;-72
2021/04/05 13:30:37;;;;;;;1.38;0.60;;;5.70;99.90;;;;;;4896205;29;20778;-72
2021/04/05 13:33:05;;;;;;;2.25;0.88;;;5.70;99.90;;;;;;4898890;29;20210;-72
2021/04/05 13:35:32;;;;;;;2.88;0.80;;;5.60;99.90;;;;;;4886371;29;20208;-72
2021/04/05 13:38:03;;;;;;;1.50;1.10;;;5.50;99.90;;;;;;4892250;29;20363;-72
2021/04/05 13:40:31;;;;;;;7.25;0.93;;;5.30;99.90;;;;;;4882248;29;20232;-72
2021/04/05 13:42:59;;;;;;;4.15;0.82;;;5.20;99.90;;;;;;4881596;29;20247;-72
2021/04/05 13:45:32;;;;;;;3.97;2.05;;;5.30;99.90;;;;;;4877629;29;20218;-72
2021/04/05 13:48:05;;;;;;;4.45;1.60;;;5.60;99.90;;;;;;4881207;29;20209;-72
2021/04/05 13:50:32;;;;;;;3.38;2.20;;;5.80;99.90;;;;;;4867419;29;20240;-73
2021/04/05 13:53:01;;;;;;;0.90;0.90;;;5.90;99.90;;;;;;4880014;29;20227;-71
2021/04/05 13:55:31;;;;;;;3.90;1.40;;;5.90;99.90;;;;;;4880196;29;20418;-70
2021/04/05 13:58:05;;;;;;;2.50;1.67;;;5.60;99.90;;;;;;4877162;29;20275;-70
2021/04/05 14:00:33;;;;;;;2.97;1.05;;;5.30;99.90;;;;;;4880925;29;20224;-70
2021/04/05 14:03:03;;;;;;;0.40;0.40;;;5.10;99.90;;;;;;4875456;29;20212;-69
2021/04/05 14:05:33;;;;;;;1.35;0.50;;;4.90;99.90;;;;;;4880325;29;20208;-69
2021/04/05 14:08:03;;;;;;;0.75;0.73;;;4.80;99.90;;;;;;4879794;29;20215;-69
2021/04/05 14:10:30;;;;;;;0.77;0.63;;;4.70;99.90;;;;;;4880644;29;20709;-69
2021/04/05 14:13:02;;;;;;;2.17;0.60;;;4.50;99.90;;;;;;4879346;29;20208;-69
2021/04/05 14:15:28;;;;;;;0.75;0.60;;;4.40;99.90;;;;;;4879670;29;20220;-70
2021/04/05 14:17:57;;;;;;;2.17;0.98;;;4.30;99.90;;;;;;4875356;29;20213;-70
2021/04/05 14:20:30;;;;;;;2.83;0.40;;;4.40;99.90;;;;;;4875809;29;20645;-70
2021/04/05 14:23:05;;;;;;;0.68;0.68;;;4.50;99.90;;;;;;4883210;29;20252;-70
2021/04/05 14:25:34;;;;;;;2.78;0.75;;;4.50;99.90;;;;;;4883850;29;20255;-69
2021/04/05 14:28:05;;;;;;;1.17;0.47;;;4.60;99.90;;;;;;4883461;29;20208;-70
2021/04/05 14:30:35;;;;;;;0.80;0.80;;;4.60;99.90;;;;;;4880643;29;20329;-70
2021/04/05 14:33:06;;;;;;;3.80;1.10;;;4.80;99.90;;;;;;4878043;29;20263;-70
2021/04/05 14:35:41;;;;;;;2.20;0.93;;;4.90;99.90;;;;;;4875038;29;20196;-69
2021/04/05 14:38:11;;;;;;;1.45;1.00;;;5.10;99.90;;;;;;4873280;29;20212;-69
2021/04/05 14:40:40;;;;;;;1.83;0.85;;;5.30;99.90;;;;;;4872770;29;20224;-69
2021/04/05 14:43:13;;;;;;;4.03;1.48;;;5.50;99.90;;;;;;4890410;29;20220;-69
2021/04/05 14:45:41;;;;;;;2.22;1.40;;;5.60;99.90;;;;;;4877698;29;20614;-69
2021/04/05 14:48:09;;;;;;;1.85;0.40;;;5.70;99.90;;;;;;4879178;29;20249;-69
2021/04/05 14:50:42;;;;;;;1.42;0.90;;;5.90;99.90;;;;;;4878928;29;20234;-70
2021/04/05 14:53:13;;;;;;;2.42;0.90;;;6.00;99.90;;;;;;4879731;29;20307;-70
2021/04/05 14:55:43;;;;;;;4.25;1.13;;;6.00;99.90;;;;;;4879956;29;20216;-69
2021/04/05 14:58:17;;;;;;;2.00;0.73;;;5.90;99.90;;;;;;4878728;29;20375;-69
2021/04/05 15:00:46;;;;;;;2.67;0.95;;;5.80;99.90;;;;;;4878102;29;20319;-69
2021/04/05 15:03:14;;;;;;;1.75;0.90;;;5.60;99.90;;;;;;4880169;29;20216;-70
2021/04/05 15:05:43;;;;;;;1.17;1.10;;;5.70;99.90;;;;;;4880648;29;20204;-70
2021/04/05 15:08:14;;;;;;;1.77;1.58;;;5.80;99.90;;;;;;4878605;29;20211;-71
2021/04/05 15:10:45;;;;;;;2.53;1.70;;;6.00;99.90;;;;;;4879297;29;20299;-70
2021/04/05 15:13:15;;;;;;;1.70;1.02;;;6.20;99.90;;;;;;4878512;29;20212;-70
2021/04/05 15:15:43;;;;;;;2.95;1.02;;;6.40;99.90;;;;;;4878835;29;20289;-70
2021/04/05 15:18:13;;;;;;;5.75;0.88;;;6.50;99.90;;;;;;4878897;29;20212;-70
2021/04/05 15:20:43;;;;;;;1.65;1.10;;;6.40;99.90;;;;;;4880519;29;20231;-71
2021/04/05 15:23:13;;;;;;;2.58;0.80;;;6.30;99.90;;;;;;4863383;29;20212;-71
2021/04/05 15:25:44;;;;;;;2.45;0.80;;;6.30;99.90;;;;;;4877022;29;20211;-70
2021/04/05 15:28:13;;;;;;;6.13;1.08;;;6.30;99.90;;;;;;4880971;29;20204;-71
2021/04/05 15:30:42;;;;;;;3.90;1.35;;;6.40;99.90;;;;;;4878319;29;20224;-70
2021/04/05 15:33:09;;;;;;;4.75;2.97;;;6.30;99.90;;;;;;4877685;29;20230;-70
2021/04/05 15:35:37;;;;;;;1.85;1.75;;;6.30;99.90;;;;;;4877818;29;20209;-70
2021/04/05 15:38:05;;;;;;;3.55;1.83;;;6.10;99.90;;;;;;4878910;29;20216;-71
2021/04/05 15:40:34;;;;;;;5.18;2.20;;;5.80;99.90;;;;;;4876340;29;20789;-71
2021/04/05 15:43:03;;;;;;;4.07;1.08;;;5.60;99.90;;;;;;4886233;29;20207;-71
2021/04/05 15:45:40;;;;;;;1.63;1.52;;;5.40;99.90;;;;;;4879574;29;20613;-71
2021/04/05 15:48:12;;;;;;;6.68;1.50;;;5.00;99.90;;;;;;4880437;29;20215;-72
2021/04/05 15:50:52;;;;;;;3.60;1.80;;;4.70;99.90;;;;;;4879214;29;20223;-71
2021/04/05 15:53:20;;;;;;;2.55;1.83;;;4.40;99.90;;;;;;4860976;29;20227;-70
2021/04/05 15:55:50;;;;;;;4.55;1.40;;;4.10;99.90;;;;;;4866318;29;20322;-70
2021/04/05 15:58:24;;;;;;;5.22;1.30;;;4.00;99.90;;;;;;4878208;29;20290;-71
2021/04/05 16:00:56;;;;;;;6.20;1.40;;;3.80;99.90;;;;;;4878389;29;20236;-70
2021/04/05 16:03:30;;;;;;;4.72;1.40;;;3.80;99.90;;;;;;4878007;29;20236;-71
2021/04/05 16:06:00;;;;;;;7.05;2.10;;;3.70;99.90;;;;;;4878224;29;20299;-71
2021/04/05 16:08:32;;;;;;;2.67;1.52;;;3.70;99.90;;;;;;4879509;29;20633;-71
2021/04/05 16:11:05;;;;;;;1.65;1.55;;;3.70;99.90;;;;;;4878225;29;20251;-71
2021/04/05 16:13:38;;;;;;;5.18;1.65;;;3.60;99.90;;;;;;4877998;29;20222;-72
2021/04/05 16:16:14;;;;;;;3.22;1.05;;;3.50;99.90;;;;;;4878064;29;20300;-72
2021/04/05 16:18:48;;;;;;;1.92;1.25;;;3.50;99.90;;;;;;4876920;29;20207;-71
2021/04/05 16:21:21;;;;;;;3.70;1.15;;;3.50;99.90;;;;;;4878469;29;20272;-69
2021/04/05 16:23:53;;;;;;;3.40;1.73;;;3.60;99.90;;;;;;4877187;29;20215;-69
2021/04/05 16:26:23;;;;;;;4.78;2.25;;;3.60;99.90;;;;;;4878384;29;20272;-69
2021/04/05 16:28:52;;;;;;;1.67;1.50;;;3.70;99.90;;;;;;4878212;29;20232;-69
2021/04/05 16:31:23;;;;;;;8.40;4.82;;;3.80;99.90;;;;;;4865544;29;20231;-69
2021/04/05 16:33:54;;;;;;;2.35;2.13;;;4.00;99.90;;;;;;4877915;29;20629;-68
2021/04/05 16:36:24;;;;;;;3.70;1.67;;;4.10;99.90;;;;;;4877898;29;20291;-68
2021/04/05 16:38:54;;;;;;;2.08;1.92;;;4.20;99.90;;;;;;4878085;29;20207;-69
2021/04/05 16:41:30;;;;;;;1.50;1.40;;;4.20;99.90;;;;;;4873823;29;20597;-69
2021/04/05 16:43:57;;;;;;;2.10;1.23;;;4.30;99.90;;;;;;4877775;29;20203;-68
2021/04/05 16:46:26;;;;;;;2.85;1.88;;;4.30;99.90;;;;;;4885652;29;20207;-67
2021/04/05 16:48:58;;;;;;;6.63;2.00;;;4.40;99.90;;;;;;4883669;29;20258;-67
2021/04/05 16:51:26;;;;;;;2.50;1.92;;;4.40;99.90;;;;;;4883556;29;20331;-67
2021/04/05 16:53:56;;;;;;;3.67;1.58;;;4.50;99.90;;;;;;4880767;29;20271;-68
2021/04/05 16:56:28;;;;;;;3.33;1.98;;;4.50;99.90;;;;;;4883450;29;20852;-68
2021/04/05 16:58:58;;;;;;;9.30;2.60;;;4.60;99.90;;;;;;4881515;29;20223;-70
2021/04/05 17:01:26;;;;;;;2.70;1.65;;;4.60;99.90;;;;;;4880109;29;20330;-69
2021/04/05 17:03:59;;;;;;;3.70;2.10;;;4.70;99.90;;;;;;4877372;29;20204;-68
2021/04/05 17:06:29;;;;;;;2.28;2.08;;;4.70;99.90;;;;;;4881074;29;20637;-68
2021/04/05 17:09:00;;;;;;;5.45;2.05;;;4.70;99.90;;;;;;4875231;29;20772;-68
2021/04/05 17:11:31;;;;;;;6.78;2.03;;;4.80;99.90;;;;;;4882601;29;20223;-70
2021/04/05 17:14:02;;;;;;;7.05;2.45;;;4.80;99.90;;;;;;4881535;29;20233;-70
2021/04/05 17:16:31;;;;;;;4.45;1.73;;;4.80;99.90;;;;;;4880654;29;20550;-68
2021/04/05 17:19:00;;;;;;;2.97;1.55;;;4.80;99.90;;;;;;4881661;29;20204;-68
2021/04/05 17:21:28;;;;;;;4.65;1.75;;;4.70;99.90;;;;;;4880939;29;20230;-68
2021/04/05 17:23:59;;;;;;;3.08;1.65;;;4.60;99.90;;;;;;4883773;29;20216;-68